Time,TemperatureF,DewpointF,PressureIn,WindDirection,WindDirectionDegrees,WindSpeedMPH,WindSpeedGustMPH,Humidity,HourlyPrecipIn,Conditions,Clouds,dailyrainin,SolarRadiationWatts/m^2,SoftwareType,DateUTC
2013-05-05 00:00:00,48.3,39.3,30.00,ESE,113,0.0,0.0,71,0.00,,,0.00,0,Wunderground v.1.15,2013-05-05 05:00:00,
2013-05-05 00:10:00,48.0,39.4,30.00,ESE,113,0.0,0.0,72,0.00,,,0.00,0,Wunderground v.1.15,2013-05-05 05:10:00,
2013-05-05 00:15:00,47.8,38.5,30.00,ESE,113,0.0,0.0,70,0.00,,,0.00,0,Wunderground v.1.15,2013-05-05 05:15:00,
2013-05-05 00:20:00,47.4,38.5,30.00,ESE,113,0.0,0.0,71,0.00,,,0.00,0,Wunderground v.1.15,2013-05-05 05:20:00,
2013-05-05 00:30:00,46.8,39.3,30.00,ESE,113,0.0,0.0,75,0.00,,,0.00,0,Wunderground v.1.15,2013-05-05 05:30:00,
2013-05-05 00:35:00,46.6,38.4,30.00,ESE,113,0.0,0.0,73,0.00,,,0.00,0,Wunderground v.1.15,2013-05-05 05:35:00,
2013-05-05 00:45:00,46.4,38.2,30.01,ESE,113,0.0,0.0,73,0.00,,,0.00,0,Wunderground v.1.15,2013-05-05 05:45:00,
2013-05-05 00:50:00,46.1,37.9,30.01,ESE,113,0.0,0.0,73,0.00,,,0.00,0,Wunderground v.1.15,2013-05-05 05:50:00,
2013-05-05 00:55:00,45.9,37.7,30.01,ESE,113,0.0,0.0,73,0.00,,,0.00,0,Wunderground v.1.15,2013-05-05 05:55:00,
2013-05-05 01:00:00,45.6,37.8,30.01,ESE,113,0.0,0.0,74,0.00,,,0.00,0,Wunderground v.1.15,2013-05-05 06:00:00,
2013-05-05 01:05:00,45.4,37.6,30.01,ESE,113,0.0,0.0,74,0.00,,,0.00,0,Wunderground v.1.15,2013-05-05 06:05:00,
2013-05-05 01:10:00,45.2,38.4,30.00,ESE,113,0.0,0.0,77,0.00,,,0.00,0,Wunderground v.1.15,2013-05-05 06:10:00,
2013-05-05 01:20:00,45.1,37.3,30.00,ESE,113,0.0,0.0,74,0.00,,,0.00,0,Wunderground v.1.15,2013-05-05 06:20:00,
2013-05-05 01:25:00,44.9,37.8,30.00,ESE,113,0.0,0.0,76,0.00,,,0.00,0,Wunderground v.1.15,2013-05-05 06:25:00,
2013-05-05 01:30:00,44.8,37.7,30.00,ESE,113,0.0,0.0,76,0.00,,,0.00,0,Wunderground v.1.15,2013-05-05 06:30:00,
2013-05-05 01:35:00,44.7,37.3,30.01,ESE,113,0.0,0.0,75,0.00,,,0.00,0,Wunderground v.1.15,2013-05-05 06:35:00,
2013-05-05 01:45:00,44.5,37.4,30.01,ESE,113,0.0,0.0,76,0.00,,,0.00,0,Wunderground v.1.15,2013-05-05 06:45:00,
2013-05-05 01:50:00,44.4,37.3,30.01,ESE,113,0.0,0.0,76,0.00,,,0.00,0,Wunderground v.1.15,2013-05-05 06:50:00,
2013-05-05 01:55:00,44.2,37.4,30.01,ESE,113,0.0,0.0,77,0.00,,,0.00,0,Wunderground v.1.15,2013-05-05 06:55:00,
2013-05-05 02:00:00,44.0,37.3,30.01,ESE,113,0.0,0.0,77,0.00,,,0.00,0,Wunderground v.1.15,2013-05-05 07:00:00,
2013-05-05 02:05:00,43.8,37.4,30.01,ESE,113,0.0,0.0,78,0.00,,,0.00,0,Wunderground v.1.15,2013-05-05 07:05:00,
2013-05-05 02:15:00,43.5,37.4,30.01,ESE,113,0.0,0.0,79,0.00,,,0.00,0,Wunderground v.1.15,2013-05-05 07:15:00,
2013-05-05 02:20:00,43.5,37.1,30.01,ESE,113,0.0,0.0,78,0.00,,,0.00,0,Wunderground v.1.15,2013-05-05 07:20:00,
2013-05-05 02:30:00,43.4,37.0,30.01,ESE,113,0.0,0.0,78,0.00,,,0.00,0,Wunderground v.1.15,2013-05-05 07:30:00,
2013-05-05 02:35:00,43.4,36.7,30.01,ESE,113,0.0,0.0,77,0.00,,,0.00,0,Wunderground v.1.15,2013-05-05 07:35:00,
2013-05-05 02:45:00,43.3,36.9,30.01,ESE,113,0.0,0.0,78,0.00,,,0.00,0,Wunderground v.1.15,2013-05-05 07:45:00,
2013-05-05 02:50:00,43.4,36.7,30.02,ESE,113,0.0,0.0,77,0.00,,,0.00,0,Wunderground v.1.15,2013-05-05 07:50:00,
2013-05-05 02:55:00,43.7,36.6,30.02,ESE,113,0.0,0.0,76,0.00,,,0.00,0,Wunderground v.1.15,2013-05-05 07:55:00,
2013-05-05 03:00:00,44.7,36.6,30.02,ESE,113,0.0,0.0,73,0.00,,,0.00,0,Wunderground v.1.15,2013-05-05 08:00:00,
2013-05-05 03:05:00,45.6,37.1,30.02,SW,234,0.0,0.0,72,0.00,,,0.00,0,Wunderground v.1.15,2013-05-05 08:05:00,
2013-05-05 03:10:00,46.5,36.9,30.02,SW,234,0.0,0.0,69,0.00,,,0.00,0,Wunderground v.1.15,2013-05-05 08:10:00,
2013-05-05 03:15:00,47.3,37.6,30.02,SW,234,0.0,0.0,69,0.00,,,0.00,0,Wunderground v.1.15,2013-05-05 08:15:00,
2013-05-05 03:20:00,47.7,37.7,30.02,SW,234,0.0,0.0,68,0.00,,,0.00,0,Wunderground v.1.15,2013-05-05 08:20:00,
2013-05-05 03:30:00,48.5,37.3,30.02,SW,234,0.0,0.0,65,0.00,,,0.00,0,Wunderground v.1.15,2013-05-05 08:30:00,
2013-05-05 03:35:00,48.8,37.2,30.02,SW,234,0.0,0.0,64,0.00,,,0.00,0,Wunderground v.1.15,2013-05-05 08:35:00,
2013-05-05 03:40:00,48.9,37.3,30.02,SW,234,0.0,0.0,64,0.00,,,0.00,0,Wunderground v.1.15,2013-05-05 08:40:00,
2013-05-05 03:45:00,49.1,37.4,30.02,SW,234,0.0,0.0,64,0.00,,,0.00,0,Wunderground v.1.15,2013-05-05 08:45:00,
2013-05-05 03:50:00,49.1,37.4,30.02,SW,234,0.0,0.0,64,0.00,,,0.00,0,Wunderground v.1.15,2013-05-05 08:50:00,
2013-05-05 04:00:00,48.9,37.3,30.02,SW,234,0.0,0.0,64,0.00,,,0.00,0,Wunderground v.1.15,2013-05-05 09:00:00,
2013-05-05 04:05:00,48.8,37.2,30.03,SW,234,0.0,0.0,64,0.00,,,0.00,0,Wunderground v.1.15,2013-05-05 09:05:00,
2013-05-05 04:10:00,48.8,37.6,30.03,SW,234,0.0,0.0,65,0.00,,,0.00,0,Wunderground v.1.15,2013-05-05 09:10:00,
2013-05-05 04:15:00,48.7,37.1,30.03,SW,234,0.0,0.0,64,0.00,,,0.00,0,Wunderground v.1.15,2013-05-05 09:15:00,
2013-05-05 04:20:00,48.6,37.4,30.03,SW,234,0.0,0.0,65,0.00,,,0.00,0,Wunderground v.1.15,2013-05-05 09:20:00,
2013-05-05 04:30:00,47.8,37.7,30.04,SW,234,0.0,0.0,68,0.00,,,0.00,0,Wunderground v.1.15,2013-05-05 09:30:00,
2013-05-05 04:35:00,47.5,37.1,30.04,SW,234,0.0,0.0,67,0.00,,,0.00,0,Wunderground v.1.15,2013-05-05 09:35:00,
2013-05-05 04:40:00,47.2,37.2,30.05,SW,234,0.0,0.0,68,0.00,,,0.00,0,Wunderground v.1.15,2013-05-05 09:40:00,
2013-05-05 04:45:00,46.9,36.9,30.05,SW,234,0.0,0.0,68,0.00,,,0.00,0,Wunderground v.1.15,2013-05-05 09:45:00,
2013-05-05 04:50:00,46.3,36.7,30.05,SW,234,0.0,0.0,69,0.00,,,0.00,0,Wunderground v.1.15,2013-05-05 09:50:00,
2013-05-05 05:00:00,45.5,37.0,30.05,SW,234,0.0,0.0,72,0.00,,,0.00,0,Wunderground v.1.15,2013-05-05 10:00:00,
2013-05-05 05:05:00,45.2,37.1,30.05,SW,234,0.0,0.0,73,0.00,,,0.00,0,Wunderground v.1.15,2013-05-05 10:05:00,
2013-05-05 05:10:00,44.9,37.1,30.06,SW,234,0.0,0.0,74,0.00,,,0.00,0,Wunderground v.1.15,2013-05-05 10:10:00,
2013-05-05 05:15:00,44.6,36.5,30.06,SW,234,0.0,0.0,73,0.00,,,0.00,0,Wunderground v.1.15,2013-05-05 10:15:00,
2013-05-05 05:20:00,43.9,36.5,30.06,SW,234,0.0,0.0,75,0.00,,,0.00,0,Wunderground v.1.15,2013-05-05 10:20:00,
2013-05-05 05:30:00,42.7,36.3,30.06,SW,234,0.0,0.0,78,0.00,,,0.00,0,Wunderground v.1.15,2013-05-05 10:30:00,
2013-05-05 05:35:00,42.3,35.9,30.06,SW,234,0.0,0.0,78,0.00,,,0.00,0,Wunderground v.1.15,2013-05-05 10:35:00,
2013-05-05 05:40:00,41.8,35.8,30.06,SW,234,0.0,0.0,79,0.00,,,0.00,0,Wunderground v.1.15,2013-05-05 10:40:00,
2013-05-05 05:45:00,41.5,35.5,30.06,SW,234,0.0,0.0,79,0.00,,,0.00,0,Wunderground v.1.15,2013-05-05 10:45:00,
2013-05-05 05:50:00,41.3,35.9,30.07,SW,234,0.0,0.0,81,0.00,,,0.00,0,Wunderground v.1.15,2013-05-05 10:50:00,
2013-05-05 06:00:00,40.7,35.0,30.07,SW,234,0.0,0.0,80,0.00,,,0.00,0,Wunderground v.1.15,2013-05-05 11:00:00,
2013-05-05 06:10:00,40.0,34.9,30.07,SW,234,0.0,0.0,82,0.00,,,0.00,0,Wunderground v.1.15,2013-05-05 11:10:00,
2013-05-05 06:15:00,39.4,34.7,30.07,SW,234,0.0,0.0,83,0.00,,,0.00,0,Wunderground v.1.15,2013-05-05 11:15:00,
2013-05-05 06:20:00,39.0,34.6,30.08,SW,234,0.0,0.0,84,0.00,,,0.00,0,Wunderground v.1.15,2013-05-05 11:20:00,
2013-05-05 06:30:00,38.6,34.5,30.08,SW,234,0.0,0.0,85,0.00,,,0.00,0,Wunderground v.1.15,2013-05-05 11:30:00,
2013-05-05 06:35:00,38.4,34.3,30.08,SW,234,0.0,0.0,85,0.00,,,0.00,0,Wunderground v.1.15,2013-05-05 11:35:00,
2013-05-05 06:45:00,38.3,34.2,30.08,SW,234,0.0,0.0,85,0.00,,,0.00,5,Wunderground v.1.15,2013-05-05 11:45:00,
2013-05-05 06:55:00,38.1,34.3,30.09,SW,234,0.0,0.0,86,0.00,,,0.00,11,Wunderground v.1.15,2013-05-05 11:55:00,
2013-05-05 07:00:00,38.0,34.2,30.09,SW,234,0.0,0.0,86,0.00,,,0.00,12,Wunderground v.1.15,2013-05-05 12:00:00,
2013-05-05 07:10:00,38.3,34.8,30.10,SW,234,0.0,0.0,87,0.00,,,0.00,28,Wunderground v.1.15,2013-05-05 12:10:00,
2013-05-05 07:20:00,39.9,35.8,30.10,SW,234,0.0,0.0,85,0.00,,,0.00,53,Wunderground v.1.15,2013-05-05 12:20:00,
2013-05-05 07:30:00,41.8,36.7,30.11,SW,234,0.0,0.0,82,0.00,,,0.00,81,Wunderground v.1.15,2013-05-05 12:30:00,
2013-05-05 07:35:00,42.4,37.0,30.12,SW,234,0.0,0.0,81,0.00,,,0.00,53,Wunderground v.1.15,2013-05-05 12:35:00,
2013-05-05 07:45:00,43.7,38.6,30.12,SW,234,0.0,0.0,82,0.00,,,0.00,139,Wunderground v.1.15,2013-05-05 12:45:00,
2013-05-05 07:50:00,45.0,38.9,30.13,SW,234,0.0,0.0,79,0.00,,,0.00,163,Wunderground v.1.15,2013-05-05 12:50:00,
2013-05-05 08:00:00,47.7,39.8,30.13,SW,234,0.0,0.0,74,0.00,,,0.00,204,Wunderground v.1.15,2013-05-05 13:00:00,
2013-05-05 08:05:00,49.2,40.2,30.13,East,83,0.0,0.0,71,0.00,,,0.00,227,Wunderground v.1.15,2013-05-05 13:05:00,
2013-05-05 08:10:00,50.8,40.6,30.13,East,84,0.0,0.0,68,0.00,,,0.00,246,Wunderground v.1.15,2013-05-05 13:10:00,
2013-05-05 08:20:00,53.4,41.1,30.13,East,96,0.0,1.0,63,0.00,,,0.00,285,Wunderground v.1.15,2013-05-05 13:20:00,
2013-05-05 08:30:00,54.9,40.8,30.14,ENE,78,1.0,1.0,59,0.00,,,0.00,320,Wunderground v.1.15,2013-05-05 13:30:00,
2013-05-05 08:35:00,55.3,40.8,30.14,East,97,1.0,1.0,58,0.00,,,0.00,338,Wunderground v.1.15,2013-05-05 13:35:00,
2013-05-05 08:40:00,55.5,41.0,30.14,ENE,76,1.0,1.0,58,0.00,,,0.00,357,Wunderground v.1.15,2013-05-05 13:40:00,
2013-05-05 08:50:00,56.4,41.8,30.14,East,100,1.0,3.0,58,0.00,,,0.00,396,Wunderground v.1.15,2013-05-05 13:50:00,
2013-05-05 08:55:00,56.9,41.8,30.14,ESE,104,1.0,3.0,57,0.00,,,0.00,411,Wunderground v.1.15,2013-05-05 13:55:00,
2013-05-05 09:00:00,57.3,42.2,30.14,ENE,71,1.0,2.0,57,0.00,,,0.00,432,Wunderground v.1.15,2013-05-05 14:00:00,
2013-05-05 09:05:00,57.9,41.8,30.14,ESE,106,1.0,2.0,55,0.00,,,0.00,452,Wunderground v.1.15,2013-05-05 14:05:00,
2013-05-05 09:15:00,58.0,41.4,30.14,NE,56,1.0,2.0,54,0.00,,,0.00,485,Wunderground v.1.15,2013-05-05 14:15:00,
2013-05-05 09:20:00,58.2,41.6,30.14,East,97,2.0,2.0,54,0.00,,,0.00,503,Wunderground v.1.15,2013-05-05 14:20:00,
2013-05-05 09:25:00,58.2,41.1,30.15,East,94,2.0,2.0,53,0.00,,,0.00,522,Wunderground v.1.15,2013-05-05 14:25:00,
2013-05-05 09:30:00,58.6,42.0,30.15,ENE,68,2.0,3.0,54,0.00,,,0.00,538,Wunderground v.1.15,2013-05-05 14:30:00,
2013-05-05 09:35:00,59.0,41.9,30.15,East,90,1.0,3.0,53,0.00,,,0.00,559,Wunderground v.1.15,2013-05-05 14:35:00,
2013-05-05 09:45:00,60.0,42.3,30.15,South,180,1.0,1.0,52,0.00,,,0.00,591,Wunderground v.1.15,2013-05-05 14:45:00,
2013-05-05 09:50:00,60.3,41.6,30.15,ENE,66,1.0,3.0,50,0.00,,,0.00,610,Wunderground v.1.15,2013-05-05 14:50:00,
2013-05-05 09:55:00,60.6,41.8,30.15,East,94,1.0,3.0,50,0.00,,,0.00,629,Wunderground v.1.15,2013-05-05 14:55:00,
2013-05-05 10:00:00,60.9,42.1,30.15,SW,223,2.0,2.0,50,0.00,,,0.00,643,Wunderground v.1.15,2013-05-05 15:00:00,
2013-05-05 10:05:00,61.0,42.7,30.15,NNE,18,2.0,2.0,51,0.00,,,0.00,659,Wunderground v.1.15,2013-05-05 15:05:00,
2013-05-05 10:10:00,61.2,42.9,30.15,WNW,302,2.0,2.0,51,0.00,,,0.00,671,Wunderground v.1.15,2013-05-05 15:10:00,
2013-05-05 10:15:00,61.2,42.4,30.15,ESE,122,1.0,2.0,50,0.00,,,0.00,689,Wunderground v.1.15,2013-05-05 15:15:00,
2013-05-05 10:20:00,61.5,43.2,30.15,ESE,105,1.0,3.0,51,0.00,,,0.00,703,Wunderground v.1.15,2013-05-05 15:20:00,
2013-05-05 10:25:00,62.0,43.1,30.15,SE,133,1.0,3.0,50,0.00,,,0.00,717,Wunderground v.1.15,2013-05-05 15:25:00,
2013-05-05 10:30:00,62.5,43.1,30.15,SSE,156,2.0,2.0,49,0.00,,,0.00,737,Wunderground v.1.15,2013-05-05 15:30:00,
2013-05-05 10:40:00,62.6,43.7,30.15,East,85,1.0,1.0,50,0.00,,,0.00,763,Wunderground v.1.15,2013-05-05 15:40:00,
2013-05-05 10:45:00,63.1,43.6,30.14,WSW,254,2.0,2.0,49,0.00,,,0.00,777,Wunderground v.1.15,2013-05-05 15:45:00,
2013-05-05 10:55:00,63.7,44.2,30.14,ESE,113,1.0,3.0,49,0.00,,,0.00,802,Wunderground v.1.15,2013-05-05 15:55:00,
2013-05-05 11:00:00,63.9,43.3,30.14,WSW,256,2.0,2.0,47,0.00,,,0.00,812,Wunderground v.1.15,2013-05-05 16:00:00,
2013-05-05 11:05:00,64.2,43.0,30.15,East,92,1.0,3.0,46,0.00,,,0.00,828,Wunderground v.1.15,2013-05-05 16:05:00,
2013-05-05 11:10:00,64.3,43.6,30.15,ESE,105,2.0,2.0,47,0.00,,,0.00,837,Wunderground v.1.15,2013-05-05 16:10:00,
2013-05-05 11:15:00,65.0,44.8,30.15,SE,125,2.0,3.0,48,0.00,,,0.00,849,Wunderground v.1.15,2013-05-05 16:15:00,
2013-05-05 11:20:00,65.5,43.6,30.14,East,98,2.0,3.0,45,0.00,,,0.00,858,Wunderground v.1.15,2013-05-05 16:20:00,
2013-05-05 11:30:00,66.3,44.9,30.15,ESE,115,1.0,1.0,46,0.00,,,0.00,879,Wunderground v.1.15,2013-05-05 16:30:00,
2013-05-05 11:35:00,66.8,44.2,30.15,East,98,1.0,3.0,44,0.00,,,0.00,886,Wunderground v.1.15,2013-05-05 16:35:00,
2013-05-05 11:45:00,67.2,45.1,30.15,SE,133,2.0,2.0,45,0.00,,,0.00,905,Wunderground v.1.15,2013-05-05 16:45:00,
2013-05-05 11:50:00,67.7,44.4,30.14,East,92,2.0,2.0,43,0.00,,,0.00,912,Wunderground v.1.15,2013-05-05 16:50:00,
2013-05-05 11:55:00,67.8,45.1,30.14,ESE,119,2.0,2.0,44,0.00,,,0.00,921,Wunderground v.1.15,2013-05-05 16:55:00,
2013-05-05 12:00:00,68.6,45.8,30.14,ENE,74,2.0,4.0,44,0.00,,,0.00,932,Wunderground v.1.15,2013-05-05 17:00:00,
2013-05-05 12:10:00,68.3,45.5,30.14,East,97,3.0,3.0,44,0.00,,,0.00,942,Wunderground v.1.15,2013-05-05 17:10:00,
2013-05-05 12:15:00,68.4,45.6,30.14,SSW,193,2.0,3.0,44,0.00,,,0.00,946,Wunderground v.1.15,2013-05-05 17:15:00,
2013-05-05 12:20:00,68.4,46.2,30.14,ENE,78,2.0,3.0,45,0.00,,,0.00,954,Wunderground v.1.15,2013-05-05 17:20:00,
2013-05-05 12:30:00,68.8,46.0,30.13,East,100,3.0,3.0,44,0.00,,,0.00,965,Wunderground v.1.15,2013-05-05 17:30:00,
2013-05-05 12:35:00,68.8,46.6,30.14,WSW,238,3.0,3.0,45,0.00,,,0.00,967,Wunderground v.1.15,2013-05-05 17:35:00,
2013-05-05 12:45:00,69.2,46.4,30.13,SE,138,2.0,2.0,44,0.00,,,0.00,977,Wunderground v.1.15,2013-05-05 17:45:00,
2013-05-05 12:50:00,69.4,45.9,30.13,SSE,150,2.0,2.0,43,0.00,,,0.00,976,Wunderground v.1.15,2013-05-05 17:50:00,
2013-05-05 12:55:00,69.2,46.4,30.13,SE,128,2.0,2.0,44,0.00,,,0.00,983,Wunderground v.1.15,2013-05-05 17:55:00,
2013-05-05 13:00:00,69.4,45.9,30.13,NE,51,2.0,4.0,43,0.00,,,0.00,984,Wunderground v.1.15,2013-05-05 18:00:00,
2013-05-05 13:05:00,69.5,47.2,30.13,West,266,2.0,4.0,45,0.00,,,0.00,986,Wunderground v.1.15,2013-05-05 18:05:00,
2013-05-05 13:15:00,70.0,45.8,30.12,SSW,200,1.0,2.0,42,0.00,,,0.00,986,Wunderground v.1.15,2013-05-05 18:15:00,
2013-05-05 13:20:00,70.3,46.1,30.11,SSE,163,2.0,2.0,42,0.00,,,0.00,990,Wunderground v.1.15,2013-05-05 18:20:00,
2013-05-05 13:25:00,70.6,47.0,30.11,ESE,117,1.0,3.0,43,0.00,,,0.00,990,Wunderground v.1.15,2013-05-05 18:25:00,
2013-05-05 13:30:00,70.9,47.3,30.11,SSW,194,2.0,2.0,43,0.00,,,0.00,990,Wunderground v.1.15,2013-05-05 18:30:00,
2013-05-05 13:35:00,70.9,46.0,30.10,SW,228,2.0,4.0,41,0.00,,,0.00,988,Wunderground v.1.15,2013-05-05 18:35:00,
2013-05-05 13:45:00,70.9,46.0,30.10,South,191,2.0,7.0,41,0.00,,,0.00,984,Wunderground v.1.15,2013-05-05 18:45:00,
2013-05-05 13:55:00,71.1,46.2,30.10,ENE,61,2.0,4.0,41,0.00,,,0.00,983,Wunderground v.1.15,2013-05-05 18:55:00,
2013-05-05 14:00:00,71.4,47.1,30.10,East,84,2.0,5.0,42,0.00,,,0.00,976,Wunderground v.1.15,2013-05-05 19:00:00,
2013-05-05 14:10:00,72.2,46.5,30.09,East,93,2.0,3.0,40,0.00,,,0.00,965,Wunderground v.1.15,2013-05-05 19:10:00,
2013-05-05 14:20:00,72.7,48.3,30.09,ENE,74,2.0,2.0,42,0.00,,,0.00,958,Wunderground v.1.15,2013-05-05 19:20:00,
2013-05-05 14:30:00,73.5,47.0,30.08,NE,40,2.0,2.0,39,0.00,,,0.00,944,Wunderground v.1.15,2013-05-05 19:30:00,
2013-05-05 14:35:00,73.8,47.3,30.08,East,88,2.0,5.0,39,0.00,,,0.00,940,Wunderground v.1.15,2013-05-05 19:35:00,
2013-05-05 14:45:00,74.1,46.9,30.08,South,175,2.0,2.0,38,0.00,,,0.00,923,Wunderground v.1.15,2013-05-05 19:45:00,
2013-05-05 14:50:00,74.3,47.7,30.08,East,84,2.0,2.0,39,0.00,,,0.00,916,Wunderground v.1.15,2013-05-05 19:50:00,
2013-05-05 14:55:00,74.5,47.2,30.07,North,360,1.0,2.0,38,0.00,,,0.00,909,Wunderground v.1.15,2013-05-05 19:55:00,
2013-05-05 15:00:00,74.5,47.9,30.07,East,96,1.0,6.0,39,0.00,,,0.00,902,Wunderground v.1.15,2013-05-05 20:00:00,
2013-05-05 15:05:00,74.6,47.3,30.07,SSE,150,2.0,6.0,38,0.00,,,0.00,891,Wunderground v.1.15,2013-05-05 20:05:00,
2013-05-05 15:10:00,75.0,47.7,30.07,ESE,109,2.0,2.0,38,0.00,,,0.00,881,Wunderground v.1.15,2013-05-05 20:10:00,
2013-05-05 15:15:00,75.4,48.0,30.07,SSE,147,2.0,2.0,38,0.00,,,0.00,868,Wunderground v.1.15,2013-05-05 20:15:00,
2013-05-05 15:20:00,75.7,46.8,30.07,East,82,1.0,3.0,36,0.00,,,0.00,863,Wunderground v.1.15,2013-05-05 20:20:00,
2013-05-05 15:25:00,75.6,46.8,30.06,ENE,76,2.0,3.0,36,0.00,,,0.00,854,Wunderground v.1.15,2013-05-05 20:25:00,
2013-05-05 15:30:00,75.3,46.5,30.06,NW,317,2.0,2.0,36,0.00,,,0.00,842,Wunderground v.1.15,2013-05-05 20:30:00,
2013-05-05 15:35:00,75.7,46.8,30.06,SE,129,2.0,3.0,36,0.00,,,0.00,826,Wunderground v.1.15,2013-05-05 20:35:00,
2013-05-05 15:45:00,76.0,47.1,30.05,ESE,118,2.0,2.0,36,0.00,,,0.00,802,Wunderground v.1.15,2013-05-05 20:45:00,
2013-05-05 15:50:00,76.1,46.5,30.05,East,94,1.0,1.0,35,0.00,,,0.00,791,Wunderground v.1.15,2013-05-05 20:50:00,
2013-05-05 15:55:00,76.0,45.6,30.05,ESE,104,2.0,2.0,34,0.00,,,0.00,780,Wunderground v.1.15,2013-05-05 20:55:00,
2013-05-05 16:00:00,75.7,46.1,30.04,South,188,2.0,2.0,35,0.00,,,0.00,765,Wunderground v.1.15,2013-05-05 21:00:00,
2013-05-05 16:05:00,75.8,45.4,30.05,East,97,2.0,2.0,34,0.00,,,0.00,752,Wunderground v.1.15,2013-05-05 21:05:00,
2013-05-05 16:10:00,75.6,46.0,30.04,SE,130,2.0,3.0,35,0.00,,,0.00,738,Wunderground v.1.15,2013-05-05 21:10:00,
2013-05-05 16:15:00,75.8,45.4,30.04,WSW,243,2.0,4.0,34,0.00,,,0.00,726,Wunderground v.1.15,2013-05-05 21:15:00,
2013-05-05 16:20:00,76.0,44.8,30.04,East,82,2.0,3.0,33,0.00,,,0.00,712,Wunderground v.1.15,2013-05-05 21:20:00,
2013-05-05 16:30:00,76.0,44.0,30.03,ENE,78,2.0,2.0,32,0.00,,,0.00,682,Wunderground v.1.15,2013-05-05 21:30:00,
2013-05-05 16:35:00,75.8,43.8,30.03,East,88,2.0,2.0,32,0.00,,,0.00,668,Wunderground v.1.15,2013-05-05 21:35:00,
2013-05-05 16:45:00,76.4,43.5,30.03,SSE,158,1.0,2.0,31,0.00,,,0.00,636,Wunderground v.1.15,2013-05-05 21:45:00,
2013-05-05 16:50:00,76.7,44.6,30.02,SE,126,1.0,1.0,32,0.00,,,0.00,621,Wunderground v.1.15,2013-05-05 21:50:00,
2013-05-05 17:00:00,76.7,42.9,30.03,ESE,104,2.0,4.0,30,0.00,,,0.00,587,Wunderground v.1.15,2013-05-05 22:00:00,
2013-05-05 17:05:00,76.5,42.7,30.02,SSE,159,1.0,4.0,30,0.00,,,0.00,575,Wunderground v.1.15,2013-05-05 22:05:00,
2013-05-05 17:15:00,76.6,42.8,30.02,SSE,152,1.0,3.0,30,0.00,,,0.00,541,Wunderground v.1.15,2013-05-05 22:15:00,
2013-05-05 17:20:00,76.5,42.7,30.02,ESE,122,1.0,1.0,30,0.00,,,0.00,522,Wunderground v.1.15,2013-05-05 22:20:00,
2013-05-05 17:25:00,76.6,43.7,30.02,ESE,106,1.0,1.0,31,0.00,,,0.00,504,Wunderground v.1.15,2013-05-05 22:25:00,
2013-05-05 17:30:00,76.7,42.0,30.02,ENE,66,1.0,1.0,29,0.00,,,0.00,485,Wunderground v.1.15,2013-05-05 22:30:00,
2013-05-05 17:40:00,75.9,42.2,30.02,NE,55,2.0,3.0,30,0.00,,,0.00,454,Wunderground v.1.15,2013-05-05 22:40:00,
2013-05-05 17:45:00,75.6,42.8,30.02,SSW,213,1.0,3.0,31,0.00,,,0.00,431,Wunderground v.1.15,2013-05-05 22:45:00,
2013-05-05 17:55:00,75.7,42.1,30.02,East,92,1.0,1.0,30,0.00,,,0.00,397,Wunderground v.1.15,2013-05-05 22:55:00,
2013-05-05 18:00:00,75.7,42.1,30.02,ESE,102,1.0,2.0,30,0.00,,,0.00,380,Wunderground v.1.15,2013-05-05 23:00:00,
2013-05-05 18:10:00,75.6,42.8,30.02,ESE,115,1.0,1.0,31,0.00,,,0.00,341,Wunderground v.1.15,2013-05-05 23:10:00,
2013-05-05 18:20:00,75.2,41.6,30.02,South,174,1.0,1.0,30,0.00,,,0.00,308,Wunderground v.1.15,2013-05-05 23:20:00,
2013-05-05 18:25:00,74.7,42.0,30.02,WSW,242,1.0,3.0,31,0.00,,,0.00,290,Wunderground v.1.15,2013-05-05 23:25:00,
2013-05-05 18:30:00,74.6,42.0,30.02,SSW,192,1.0,1.0,31,0.00,,,0.00,269,Wunderground v.1.15,2013-05-05 23:30:00,
2013-05-05 18:40:00,74.0,42.3,30.02,ESE,107,0.0,0.0,32,0.00,,,0.00,39,Wunderground v.1.15,2013-05-05 23:40:00,
2013-05-05 18:45:00,73.6,42.7,30.02,East,100,1.0,2.0,33,0.00,,,0.00,37,Wunderground v.1.15,2013-05-05 23:45:00,
2013-05-05 18:50:00,73.3,41.6,30.02,East,81,1.0,1.0,32,0.00,,,0.00,35,Wunderground v.1.15,2013-05-05 23:50:00,
2013-05-05 18:55:00,73.0,42.2,30.02,East,85,1.0,1.0,33,0.00,,,0.00,35,Wunderground v.1.15,2013-05-05 23:55:00,
2013-05-05 19:00:00,72.7,41.9,30.02,SE,143,1.0,1.0,33,0.00,,,0.00,33,Wunderground v.1.15,2013-05-06 00:00:00,
2013-05-05 19:05:00,72.6,42.6,30.02,ESE,108,0.0,2.0,34,0.00,,,0.00,32,Wunderground v.1.15,2013-05-06 00:05:00,
2013-05-05 19:15:00,72.0,42.8,30.02,ENE,74,0.0,0.0,35,0.00,,,0.00,28,Wunderground v.1.15,2013-05-06 00:15:00,
2013-05-05 19:20:00,71.8,42.7,30.02,SSE,161,0.0,0.0,35,0.00,,,0.00,26,Wunderground v.1.15,2013-05-06 00:20:00,
2013-05-05 19:25:00,71.5,42.4,30.02,ESE,105,0.0,0.0,35,0.00,,,0.00,26,Wunderground v.1.15,2013-05-06 00:25:00,
2013-05-05 19:30:00,71.2,42.1,30.02,ESE,105,0.0,0.0,35,0.00,,,0.00,25,Wunderground v.1.15,2013-05-06 00:30:00,
2013-05-05 19:35:00,70.9,42.6,30.02,East,80,0.0,0.0,36,0.00,,,0.00,21,Wunderground v.1.15,2013-05-06 00:35:00,
2013-05-05 19:45:00,70.3,43.5,30.02,SE,128,0.0,0.0,38,0.00,,,0.00,18,Wunderground v.1.15,2013-05-06 00:45:00,
2013-05-05 19:50:00,70.0,43.9,30.02,SE,128,0.0,0.0,39,0.00,,,0.00,14,Wunderground v.1.15,2013-05-06 00:50:00,
2013-05-05 19:55:00,69.6,43.5,30.03,SE,128,0.0,0.0,39,0.00,,,0.00,12,Wunderground v.1.15,2013-05-06 00:55:00,
2013-05-05 20:00:00,69.2,43.2,30.02,SE,128,0.0,0.0,39,0.00,,,0.00,11,Wunderground v.1.15,2013-05-06 01:00:00,
2013-05-05 20:05:00,68.8,44.8,30.02,SE,128,0.0,0.0,42,0.00,,,0.00,7,Wunderground v.1.15,2013-05-06 01:05:00,
2013-05-05 20:15:00,67.7,45.0,30.03,SE,128,0.0,0.0,44,0.00,,,0.00,0,Wunderground v.1.15,2013-05-06 01:15:00,
2013-05-05 20:20:00,66.8,44.8,30.03,SE,128,0.0,0.0,45,0.00,,,0.00,0,Wunderground v.1.15,2013-05-06 01:20:00,
2013-05-05 20:25:00,66.1,44.7,30.03,SE,128,0.0,0.0,46,0.00,,,0.00,0,Wunderground v.1.15,2013-05-06 01:25:00,
2013-05-05 20:30:00,65.5,45.3,30.03,SE,128,0.0,0.0,48,0.00,,,0.00,0,Wunderground v.1.15,2013-05-06 01:30:00,
2013-05-05 20:35:00,64.8,44.6,30.03,SE,128,0.0,0.0,48,0.00,,,0.00,0,Wunderground v.1.15,2013-05-06 01:35:00,
2013-05-05 20:45:00,63.5,44.5,30.03,SE,128,0.0,0.0,50,0.00,,,0.00,0,Wunderground v.1.15,2013-05-06 01:45:00,
2013-05-05 20:50:00,62.9,44.5,30.03,SE,128,0.0,0.0,51,0.00,,,0.00,0,Wunderground v.1.15,2013-05-06 01:50:00,
2013-05-05 20:55:00,62.3,44.4,30.04,SE,128,0.0,0.0,52,0.00,,,0.00,0,Wunderground v.1.15,2013-05-06 01:55:00,
2013-05-05 21:00:00,61.5,44.2,30.04,SE,128,0.0,0.0,53,0.00,,,0.00,0,Wunderground v.1.15,2013-05-06 02:00:00,
2013-05-05 21:05:00,61.0,44.7,30.04,SE,128,0.0,0.0,55,0.00,,,0.00,0,Wunderground v.1.15,2013-05-06 02:05:00,
2013-05-05 21:10:00,60.5,45.2,30.04,SE,128,0.0,0.0,57,0.00,,,0.00,0,Wunderground v.1.15,2013-05-06 02:10:00,
2013-05-05 21:15:00,59.9,44.2,30.05,SE,128,0.0,0.0,56,0.00,,,0.00,0,Wunderground v.1.15,2013-05-06 02:15:00,
2013-05-05 21:20:00,59.1,44.3,30.05,SE,128,0.0,0.0,58,0.00,,,0.00,0,Wunderground v.1.15,2013-05-06 02:20:00,
2013-05-05 21:25:00,58.3,44.5,30.05,SE,128,0.0,0.0,60,0.00,,,0.00,0,Wunderground v.1.15,2013-05-06 02:25:00,
2013-05-05 21:30:00,57.7,44.3,30.05,SE,128,0.0,0.0,61,0.00,,,0.00,0,Wunderground v.1.15,2013-05-06 02:30:00,
2013-05-05 21:35:00,57.0,44.1,30.05,SE,128,0.0,0.0,62,0.00,,,0.00,0,Wunderground v.1.15,2013-05-06 02:35:00,
2013-05-05 21:45:00,56.0,44.4,30.06,SE,128,0.0,0.0,65,0.00,,,0.00,0,Wunderground v.1.15,2013-05-06 02:45:00,
2013-05-05 21:50:00,55.6,44.0,30.06,SE,128,0.0,0.0,65,0.00,,,0.00,0,Wunderground v.1.15,2013-05-06 02:50:00,
2013-05-05 22:00:00,54.8,43.7,30.06,SE,128,0.0,0.0,66,0.00,,,0.00,0,Wunderground v.1.15,2013-05-06 03:00:00,
2013-05-05 22:05:00,54.3,44.0,30.06,SE,128,0.0,0.0,68,0.00,,,0.00,0,Wunderground v.1.15,2013-05-06 03:05:00,
2013-05-05 22:10:00,54.0,43.7,30.07,SE,128,0.0,0.0,68,0.00,,,0.00,0,Wunderground v.1.15,2013-05-06 03:10:00,
2013-05-05 22:15:00,53.8,43.9,30.07,SE,128,0.0,0.0,69,0.00,,,0.00,0,Wunderground v.1.15,2013-05-06 03:15:00,
2013-05-05 22:20:00,53.5,43.6,30.07,SE,128,0.0,0.0,69,0.00,,,0.00,0,Wunderground v.1.15,2013-05-06 03:20:00,
2013-05-05 22:25:00,53.1,43.6,30.08,SE,128,0.0,0.0,70,0.00,,,0.00,0,Wunderground v.1.15,2013-05-06 03:25:00,
2013-05-05 22:30:00,52.8,43.7,30.08,ESE,121,0.0,0.0,71,0.00,,,0.00,0,Wunderground v.1.15,2013-05-06 03:30:00,
2013-05-05 22:40:00,52.3,43.5,30.08,ESE,121,0.0,0.0,72,0.00,,,0.00,0,Wunderground v.1.15,2013-05-06 03:40:00,
2013-05-05 22:45:00,51.9,43.2,30.08,ESE,121,0.0,0.0,72,0.00,,,0.00,0,Wunderground v.1.15,2013-05-06 03:45:00,
2013-05-05 22:55:00,51.4,43.7,30.08,ESE,121,0.0,0.0,75,0.00,,,0.00,0,Wunderground v.1.15,2013-05-06 03:55:00,
2013-05-05 23:00:00,51.2,43.2,30.08,ESE,121,0.0,0.0,74,0.00,,,0.00,0,Wunderground v.1.15,2013-05-06 04:00:00,
2013-05-05 23:05:00,51.0,43.0,30.08,ESE,121,0.0,0.0,74,0.00,,,0.00,0,Wunderground v.1.15,2013-05-06 04:05:00,
2013-05-05 23:10:00,50.7,43.1,30.08,ESE,121,0.0,0.0,75,0.00,,,0.00,0,Wunderground v.1.15,2013-05-06 04:10:00,
2013-05-05 23:15:00,50.5,43.2,30.08,ESE,121,0.0,0.0,76,0.00,,,0.00,0,Wunderground v.1.15,2013-05-06 04:15:00,
2013-05-05 23:20:00,50.3,43.0,30.08,ESE,121,0.0,0.0,76,0.00,,,0.00,0,Wunderground v.1.15,2013-05-06 04:20:00,
2013-05-05 23:25:00,50.1,42.8,30.08,ESE,121,0.0,0.0,76,0.00,,,0.00,0,Wunderground v.1.15,2013-05-06 04:25:00,
2013-05-05 23:35:00,49.5,42.6,30.09,ESE,121,0.0,0.0,77,0.00,,,0.00,0,Wunderground v.1.15,2013-05-06 04:35:00,
2013-05-05 23:40:00,49.3,43.1,30.09,ESE,121,0.0,0.0,79,0.00,,,0.00,0,Wunderground v.1.15,2013-05-06 04:40:00,
2013-05-05 23:45:00,49.2,42.6,30.09,ESE,121,0.0,0.0,78,0.00,,,0.00,0,Wunderground v.1.15,2013-05-06 04:45:00,
2013-05-05 23:50:00,49.0,42.4,30.09,ESE,121,0.0,0.0,78,0.00,,,0.00,0,Wunderground v.1.15,2013-05-06 04:50:00,